sensor_id;sensor_type;location;lat;lon;timestamp;P1;durP1;ratioP1;P2;durP2;ratioP2
57155;SDS011;43023;59.928;10.682;2022-12-07T00:01:43;10.52;;;6.18;;
57155;SDS011;43023;59.928;10.682;2022-12-07T00:04:11;9.75;;;6.47;;
57155;SDS011;43023;59.928;10.682;2022-12-07T00:06:38;10.02;;;6.30;;
57155;SDS011;43023;59.928;10.682;2022-12-07T00:09:05;10.07;;;6.30;;
57155;SDS011;43023;59.928;10.682;2022-12-07T00:11:31;7.97;;;5.93;;
57155;SDS011;43023;59.928;10.682;2022-12-07T00:13:58;10.77;;;6.20;;
57155;SDS011;43023;59.928;10.682;2022-12-07T00:16:25;7.38;;;5.75;;
57155;SDS011;43023;59.928;10.682;2022-12-07T00:18:52;8.32;;;5.78;;
57155;SDS011;43023;59.928;10.682;2022-12-07T00:21:22;7.10;;;5.32;;
57155;SDS011;43023;59.928;10.682;2022-12-07T00:23:49;7.90;;;5.60;;
57155;SDS011;43023;59.928;10.682;2022-12-07T00:26:19;7.97;;;5.20;;
57155;SDS011;43023;59.928;10.682;2022-12-07T00:28:50;7.00;;;4.93;;
57155;SDS011;43023;59.928;10.682;2022-12-07T00:31:17;6.55;;;4.30;;
57155;SDS011;43023;59.928;10.682;2022-12-07T00:33:44;6.88;;;4.80;;
57155;SDS011;43023;59.928;10.682;2022-12-07T00:36:12;7.63;;;4.88;;
57155;SDS011;43023;59.928;10.682;2022-12-07T00:38:38;5.93;;;4.55;;
57155;SDS011;43023;59.928;10.682;2022-12-07T00:41:06;5.25;;;4.45;;
57155;SDS011;43023;59.928;10.682;2022-12-07T00:43:33;7.88;;;4.82;;
57155;SDS011;43023;59.928;10.682;2022-12-07T00:45:59;7.97;;;5.03;;
57155;SDS011;43023;59.928;10.682;2022-12-07T00:48:25;5.90;;;4.75;;
57155;SDS011;43023;59.928;10.682;2022-12-07T00:50:51;6.47;;;4.25;;
57155;SDS011;43023;59.928;10.682;2022-12-07T00:53:17;6.20;;;4.75;;
57155;SDS011;43023;59.928;10.682;2022-12-07T00:55:43;6.53;;;4.47;;
57155;SDS011;43023;59.928;10.682;2022-12-07T00:58:09;6.32;;;4.07;;
57155;SDS011;43023;59.928;10.682;2022-12-07T01:00:37;7.80;;;4.10;;
57155;SDS011;43023;59.928;10.682;2022-12-07T01:03:03;5.78;;;3.90;;
57155;SDS011;43023;59.928;10.682;2022-12-07T01:05:29;5.70;;;4.15;;
57155;SDS011;43023;59.928;10.682;2022-12-07T01:07:55;5.38;;;4.10;;
57155;SDS011;43023;59.928;10.682;2022-12-07T01:10:21;4.20;;;3.63;;
57155;SDS011;43023;59.928;10.682;2022-12-07T01:12:48;4.32;;;3.53;;
57155;SDS011;43023;59.928;10.682;2022-12-07T01:15:14;6.28;;;3.45;;
57155;SDS011;43023;59.928;10.682;2022-12-07T01:17:40;5.20;;;3.72;;
57155;SDS011;43023;59.928;10.682;2022-12-07T01:20:06;6.20;;;4.00;;
57155;SDS011;43023;59.928;10.682;2022-12-07T01:22:36;5.63;;;3.90;;
57155;SDS011;43023;59.928;10.682;2022-12-07T01:25:03;6.03;;;3.75;;
57155;SDS011;43023;59.928;10.682;2022-12-07T01:27:29;4.75;;;3.58;;
57155;SDS011;43023;59.928;10.682;2022-12-07T01:29:55;4.60;;;3.28;;
57155;SDS011;43023;59.928;10.682;2022-12-07T01:32:21;3.58;;;2.85;;
57155;SDS011;43023;59.928;10.682;2022-12-07T01:34:47;3.80;;;3.00;;
57155;SDS011;43023;59.928;10.682;2022-12-07T01:37:13;5.75;;;3.65;;
57155;SDS011;43023;59.928;10.682;2022-12-07T01:39:39;3.65;;;2.30;;
57155;SDS011;43023;59.928;10.682;2022-12-07T01:42:09;5.25;;;2.88;;
57155;SDS011;43023;59.928;10.682;2022-12-07T01:47:20;4.70;;;3.13;;
57155;SDS011;43023;59.928;10.682;2022-12-07T01:49:47;4.50;;;2.40;;
57155;SDS011;43023;59.928;10.682;2022-12-07T01:54:43;3.22;;;2.58;;
57155;SDS011;43023;59.928;10.682;2022-12-07T01:57:10;2.53;;;2.25;;
57155;SDS011;43023;59.928;10.682;2022-12-07T01:59:37;3.22;;;2.20;;
57155;SDS011;43023;59.928;10.682;2022-12-07T02:02:04;2.42;;;2.22;;
57155;SDS011;43023;59.928;10.682;2022-12-07T02:04:31;5.55;;;2.30;;
57155;SDS011;43023;59.928;10.682;2022-12-07T02:06:57;4.90;;;2.63;;
57155;SDS011;43023;59.928;10.682;2022-12-07T02:09:23;4.13;;;2.47;;
57155;SDS011;43023;59.928;10.682;2022-12-07T02:11:50;2.95;;;2.17;;
57155;SDS011;43023;59.928;10.682;2022-12-07T02:14:16;4.18;;;2.45;;
57155;SDS011;43023;59.928;10.682;2022-12-07T02:16:47;2.45;;;2.15;;
57155;SDS011;43023;59.928;10.682;2022-12-07T02:21:58;2.63;;;1.83;;
57155;SDS011;43023;59.928;10.682;2022-12-07T02:24:41;3.58;;;2.13;;
57155;SDS011;43023;59.928;10.682;2022-12-07T02:29:58;2.20;;;1.67;;
57155;SDS011;43023;59.928;10.682;2022-12-07T02:32:27;2.45;;;2.10;;
57155;SDS011;43023;59.928;10.682;2022-12-07T02:35:09;2.35;;;2.08;;
57155;SDS011;43023;59.928;10.682;2022-12-07T02:42:34;3.03;;;1.70;;
57155;SDS011;43023;59.928;10.682;2022-12-07T02:45:02;1.50;;;1.40;;
57155;SDS011;43023;59.928;10.682;2022-12-07T02:47:28;2.85;;;1.83;;
57155;SDS011;43023;59.928;10.682;2022-12-07T02:49:55;2.45;;;1.95;;
57155;SDS011;43023;59.928;10.682;2022-12-07T02:52:21;1.63;;;1.52;;
57155;SDS011;43023;59.928;10.682;2022-12-07T02:54:47;1.92;;;1.45;;
57155;SDS011;43023;59.928;10.682;2022-12-07T03:02:35;1.85;;;1.55;;
57155;SDS011;43023;59.928;10.682;2022-12-07T03:07:51;1.67;;;1.50;;
57155;SDS011;43023;59.928;10.682;2022-12-07T03:10:26;1.40;;;1.30;;
57155;SDS011;43023;59.928;10.682;2022-12-07T03:17:58;2.45;;;1.50;;
57155;SDS011;43023;59.928;10.682;2022-12-07T03:20:25;2.67;;;1.52;;
57155;SDS011;43023;59.928;10.682;2022-12-07T03:22:52;1.88;;;1.27;;
57155;SDS011;43023;59.928;10.682;2022-12-07T03:25:19;1.40;;;1.10;;
57155;SDS011;43023;59.928;10.682;2022-12-07T03:32:42;1.13;;;1.02;;
57155;SDS011;43023;59.928;10.682;2022-12-07T03:35:14;2.42;;;1.42;;
57155;SDS011;43023;59.928;10.682;2022-12-07T03:37:46;2.00;;;1.33;;
57155;SDS011;43023;59.928;10.682;2022-12-07T03:40:16;2.67;;;1.42;;
57155;SDS011;43023;59.928;10.682;2022-12-07T03:42:43;3.00;;;1.60;;
57155;SDS011;43023;59.928;10.682;2022-12-07T03:45:09;1.88;;;1.42;;
57155;SDS011;43023;59.928;10.682;2022-12-07T03:50:16;2.13;;;1.60;;
57155;SDS011;43023;59.928;10.682;2022-12-07T03:52:47;2.00;;;1.48;;
57155;SDS011;43023;59.928;10.682;2022-12-07T03:55:20;1.73;;;1.25;;
57155;SDS011;43023;59.928;10.682;2022-12-07T03:57:49;2.08;;;1.40;;
57155;SDS011;43023;59.928;10.682;2022-12-07T04:00:16;1.67;;;1.20;;
57155;SDS011;43023;59.928;10.682;2022-12-07T04:02:43;1.08;;;0.98;;
57155;SDS011;43023;59.928;10.682;2022-12-07T04:05:10;2.20;;;1.20;;
57155;SDS011;43023;59.928;10.682;2022-12-07T04:07:36;0.95;;;0.95;;
57155;SDS011;43023;59.928;10.682;2022-12-07T04:10:02;1.50;;;1.10;;
57155;SDS011;43023;59.928;10.682;2022-12-07T04:12:28;1.77;;;1.00;;
57155;SDS011;43023;59.928;10.682;2022-12-07T04:14:54;2.20;;;1.33;;
57155;SDS011;43023;59.928;10.682;2022-12-07T04:17:20;1.20;;;0.90;;
57155;SDS011;43023;59.928;10.682;2022-12-07T04:19:46;1.30;;;0.80;;
57155;SDS011;43023;59.928;10.682;2022-12-07T04:22:12;1.00;;;0.90;;
57155;SDS011;43023;59.928;10.682;2022-12-07T04:24:38;1.83;;;1.10;;
57155;SDS011;43023;59.928;10.682;2022-12-07T04:27:05;0.68;;;0.57;;
57155;SDS011;43023;59.928;10.682;2022-12-07T04:29:31;1.08;;;0.60;;
57155;SDS011;43023;59.928;10.682;2022-12-07T04:31:57;1.55;;;0.90;;
57155;SDS011;43023;59.928;10.682;2022-12-07T04:34:23;1.08;;;0.77;;
57155;SDS011;43023;59.928;10.682;2022-12-07T04:36:49;1.63;;;1.00;;
57155;SDS011;43023;59.928;10.682;2022-12-07T04:39:28;1.27;;;0.70;;
57155;SDS011;43023;59.928;10.682;2022-12-07T04:41:54;0.50;;;0.50;;
57155;SDS011;43023;59.928;10.682;2022-12-07T04:44:21;1.30;;;0.80;;
57155;SDS011;43023;59.928;10.682;2022-12-07T04:46:47;5.80;;;0.88;;
57155;SDS011;43023;59.928;10.682;2022-12-07T04:49:14;0.82;;;0.80;;
57155;SDS011;43023;59.928;10.682;2022-12-07T04:51:40;1.00;;;0.80;;
57155;SDS011;43023;59.928;10.682;2022-12-07T04:54:06;0.70;;;0.68;;
57155;SDS011;43023;59.928;10.682;2022-12-07T04:56:33;0.63;;;0.63;;
57155;SDS011;43023;59.928;10.682;2022-12-07T04:59:00;1.20;;;0.60;;
57155;SDS011;43023;59.928;10.682;2022-12-07T05:01:26;1.70;;;0.65;;
57155;SDS011;43023;59.928;10.682;2022-12-07T05:03:52;1.05;;;0.65;;
57155;SDS011;43023;59.928;10.682;2022-12-07T05:06:18;1.02;;;0.75;;
57155;SDS011;43023;59.928;10.682;2022-12-07T05:08:44;0.60;;;0.60;;
57155;SDS011;43023;59.928;10.682;2022-12-07T05:11:10;0.80;;;0.55;;
57155;SDS011;43023;59.928;10.682;2022-12-07T05:13:55;0.85;;;0.70;;
57155;SDS011;43023;59.928;10.682;2022-12-07T05:16:22;0.98;;;0.75;;
57155;SDS011;43023;59.928;10.682;2022-12-07T05:18:48;1.27;;;0.90;;
57155;SDS011;43023;59.928;10.682;2022-12-07T05:21:14;1.88;;;0.90;;
57155;SDS011;43023;59.928;10.682;2022-12-07T05:23:40;1.60;;;0.90;;
57155;SDS011;43023;59.928;10.682;2022-12-07T05:26:06;1.05;;;0.80;;
57155;SDS011;43023;59.928;10.682;2022-12-07T05:28:32;0.82;;;0.70;;
57155;SDS011;43023;59.928;10.682;2022-12-07T05:30:58;1.33;;;0.70;;
57155;SDS011;43023;59.928;10.682;2022-12-07T05:33:24;1.98;;;0.98;;
57155;SDS011;43023;59.928;10.682;2022-12-07T05:35:50;0.90;;;0.60;;
57155;SDS011;43023;59.928;10.682;2022-12-07T05:38:16;3.45;;;0.90;;
57155;SDS011;43023;59.928;10.682;2022-12-07T05:40:42;0.98;;;0.70;;
57155;SDS011;43023;59.928;10.682;2022-12-07T05:43:08;3.38;;;0.80;;
57155;SDS011;43023;59.928;10.682;2022-12-07T05:45:34;1.23;;;0.77;;
57155;SDS011;43023;59.928;10.682;2022-12-07T05:48:00;1.52;;;1.05;;
57155;SDS011;43023;59.928;10.682;2022-12-07T05:50:26;1.88;;;0.98;;
57155;SDS011;43023;59.928;10.682;2022-12-07T05:52:53;3.05;;;0.90;;
57155;SDS011;43023;59.928;10.682;2022-12-07T05:55:19;0.82;;;0.68;;
57155;SDS011;43023;59.928;10.682;2022-12-07T05:57:45;2.92;;;0.73;;
57155;SDS011;43023;59.928;10.682;2022-12-07T06:00:31;5.32;;;0.77;;
57155;SDS011;43023;59.928;10.682;2022-12-07T06:02:57;2.78;;;0.57;;
57155;SDS011;43023;59.928;10.682;2022-12-07T06:05:23;1.77;;;0.70;;
57155;SDS011;43023;59.928;10.682;2022-12-07T06:07:49;0.98;;;0.60;;
57155;SDS011;43023;59.928;10.682;2022-12-07T06:10:15;3.15;;;0.68;;
57155;SDS011;43023;59.928;10.682;2022-12-07T06:12:41;4.32;;;0.70;;
57155;SDS011;43023;59.928;10.682;2022-12-07T06:15:08;4.78;;;0.80;;
57155;SDS011;43023;59.928;10.682;2022-12-07T06:17:35;3.72;;;0.80;;
57155;SDS011;43023;59.928;10.682;2022-12-07T06:20:02;0.47;;;0.47;;
57155;SDS011;43023;59.928;10.682;2022-12-07T06:22:28;1.25;;;0.52;;
57155;SDS011;43023;59.928;10.682;2022-12-07T06:24:54;3.75;;;0.93;;
57155;SDS011;43023;59.928;10.682;2022-12-07T06:27:20;6.43;;;1.10;;
57155;SDS011;43023;59.928;10.682;2022-12-07T06:29:46;3.15;;;0.60;;
57155;SDS011;43023;59.928;10.682;2022-12-07T06:32:12;1.92;;;0.70;;
57155;SDS011;43023;59.928;10.682;2022-12-07T06:34:38;1.95;;;0.80;;
57155;SDS011;43023;59.928;10.682;2022-12-07T06:37:04;3.33;;;0.80;;
57155;SDS011;43023;59.928;10.682;2022-12-07T06:39:30;1.90;;;0.68;;
57155;SDS011;43023;59.928;10.682;2022-12-07T06:41:57;2.50;;;0.90;;
57155;SDS011;43023;59.928;10.682;2022-12-07T06:44:23;2.53;;;1.10;;
57155;SDS011;43023;59.928;10.682;2022-12-07T06:46:50;3.05;;;0.98;;
57155;SDS011;43023;59.928;10.682;2022-12-07T06:49:16;0.75;;;0.75;;
57155;SDS011;43023;59.928;10.682;2022-12-07T06:51:42;2.22;;;1.00;;
57155;SDS011;43023;59.928;10.682;2022-12-07T06:54:09;11.02;;;1.70;;
57155;SDS011;43023;59.928;10.682;2022-12-07T06:56:35;1.52;;;0.88;;
57155;SDS011;43023;59.928;10.682;2022-12-07T06:59:01;4.85;;;0.75;;
57155;SDS011;43023;59.928;10.682;2022-12-07T07:01:27;4.28;;;1.35;;
57155;SDS011;43023;59.928;10.682;2022-12-07T07:03:53;3.08;;;1.10;;
57155;SDS011;43023;59.928;10.682;2022-12-07T07:06:19;1.98;;;0.98;;
57155;SDS011;43023;59.928;10.682;2022-12-07T07:08:45;1.40;;;1.02;;
57155;SDS011;43023;59.928;10.682;2022-12-07T07:11:11;3.00;;;1.17;;
57155;SDS011;43023;59.928;10.682;2022-12-07T07:13:38;3.95;;;1.00;;
57155;SDS011;43023;59.928;10.682;2022-12-07T07:16:04;1.15;;;1.05;;
57155;SDS011;43023;59.928;10.682;2022-12-07T07:18:30;1.67;;;0.90;;
57155;SDS011;43023;59.928;10.682;2022-12-07T07:20:57;4.50;;;1.75;;
57155;SDS011;43023;59.928;10.682;2022-12-07T07:23:23;3.05;;;1.40;;
57155;SDS011;43023;59.928;10.682;2022-12-07T07:25:49;1.90;;;0.88;;
57155;SDS011;43023;59.928;10.682;2022-12-07T07:28:15;1.70;;;1.20;;
57155;SDS011;43023;59.928;10.682;2022-12-07T07:30:41;4.15;;;1.40;;
57155;SDS011;43023;59.928;10.682;2022-12-07T07:33:08;1.23;;;1.13;;
57155;SDS011;43023;59.928;10.682;2022-12-07T07:35:35;3.58;;;1.23;;
57155;SDS011;43023;59.928;10.682;2022-12-07T07:38:01;2.58;;;1.27;;
57155;SDS011;43023;59.928;10.682;2022-12-07T07:40:27;3.70;;;1.50;;
57155;SDS011;43023;59.928;10.682;2022-12-07T07:42:56;4.40;;;1.70;;
57155;SDS011;43023;59.928;10.682;2022-12-07T07:45:23;3.00;;;1.63;;
57155;SDS011;43023;59.928;10.682;2022-12-07T07:47:49;5.95;;;1.75;;
57155;SDS011;43023;59.928;10.682;2022-12-07T07:50:16;1.83;;;1.48;;
57155;SDS011;43023;59.928;10.682;2022-12-07T07:52:42;4.38;;;1.67;;
57155;SDS011;43023;59.928;10.682;2022-12-07T07:55:08;2.75;;;1.40;;
57155;SDS011;43023;59.928;10.682;2022-12-07T07:57:35;2.30;;;1.48;;
57155;SDS011;43023;59.928;10.682;2022-12-07T08:00:03;2.42;;;1.50;;
57155;SDS011;43023;59.928;10.682;2022-12-07T08:02:30;2.28;;;1.30;;
57155;SDS011;43023;59.928;10.682;2022-12-07T08:04:56;1.60;;;1.40;;
57155;SDS011;43023;59.928;10.682;2022-12-07T08:07:22;2.42;;;1.33;;
57155;SDS011;43023;59.928;10.682;2022-12-07T08:09:48;4.95;;;2.03;;
57155;SDS011;43023;59.928;10.682;2022-12-07T08:12:14;3.53;;;2.13;;
57155;SDS011;43023;59.928;10.682;2022-12-07T08:14:40;3.72;;;1.23;;
57155;SDS011;43023;59.928;10.682;2022-12-07T08:17:06;4.05;;;1.75;;
57155;SDS011;43023;59.928;10.682;2022-12-07T08:19:32;1.75;;;1.48;;
57155;SDS011;43023;59.928;10.682;2022-12-07T08:21:59;2.42;;;1.67;;
57155;SDS011;43023;59.928;10.682;2022-12-07T08:24:25;2.00;;;1.20;;
57155;SDS011;43023;59.928;10.682;2022-12-07T08:26:51;2.85;;;1.23;;
57155;SDS011;43023;59.928;10.682;2022-12-07T08:29:18;2.10;;;1.73;;
57155;SDS011;43023;59.928;10.682;2022-12-07T08:31:44;3.28;;;1.27;;
57155;SDS011;43023;59.928;10.682;2022-12-07T08:34:10;1.25;;;1.08;;
57155;SDS011;43023;59.928;10.682;2022-12-07T08:36:36;1.38;;;1.20;;
57155;SDS011;43023;59.928;10.682;2022-12-07T08:39:03;2.55;;;1.60;;
57155;SDS011;43023;59.928;10.682;2022-12-07T08:41:29;1.02;;;1.02;;
57155;SDS011;43023;59.928;10.682;2022-12-07T08:43:55;3.40;;;1.30;;
57155;SDS011;43023;59.928;10.682;2022-12-07T08:46:24;1.52;;;1.40;;
57155;SDS011;43023;59.928;10.682;2022-12-07T08:48:53;5.53;;;1.40;;
57155;SDS011;43023;59.928;10.682;2022-12-07T08:51:20;3.58;;;1.60;;
57155;SDS011;43023;59.928;10.682;2022-12-07T08:53:47;1.63;;;1.52;;
57155;SDS011;43023;59.928;10.682;2022-12-07T08:56:14;1.80;;;1.10;;
57155;SDS011;43023;59.928;10.682;2022-12-07T08:58:40;2.00;;;1.60;;
57155;SDS011;43023;59.928;10.682;2022-12-07T09:01:06;1.45;;;1.20;;
57155;SDS011;43023;59.928;10.682;2022-12-07T09:03:32;1.50;;;1.40;;
57155;SDS011;43023;59.928;10.682;2022-12-07T09:05:58;2.30;;;1.50;;
57155;SDS011;43023;59.928;10.682;2022-12-07T09:08:29;1.70;;;1.17;;
57155;SDS011;43023;59.928;10.682;2022-12-07T09:10:56;1.73;;;1.40;;
57155;SDS011;43023;59.928;10.682;2022-12-07T09:13:22;3.72;;;1.25;;
57155;SDS011;43023;59.928;10.682;2022-12-07T09:15:48;1.55;;;1.25;;
57155;SDS011;43023;59.928;10.682;2022-12-07T09:18:14;1.85;;;1.40;;
57155;SDS011;43023;59.928;10.682;2022-12-07T09:20:40;1.70;;;1.08;;
57155;SDS011;43023;59.928;10.682;2022-12-07T09:23:06;1.45;;;1.35;;
57155;SDS011;43023;59.928;10.682;2022-12-07T09:25:33;2.05;;;1.17;;
57155;SDS011;43023;59.928;10.682;2022-12-07T09:27:59;2.92;;;1.42;;
57155;SDS011;43023;59.928;10.682;2022-12-07T09:30:26;2.42;;;1.42;;
57155;SDS011;43023;59.928;10.682;2022-12-07T09:32:52;1.65;;;1.20;;
57155;SDS011;43023;59.928;10.682;2022-12-07T09:35:19;1.35;;;1.25;;
57155;SDS011;43023;59.928;10.682;2022-12-07T09:37:45;2.15;;;1.50;;
57155;SDS011;43023;59.928;10.682;2022-12-07T09:40:11;2.88;;;1.48;;
57155;SDS011;43023;59.928;10.682;2022-12-07T09:42:38;2.15;;;1.60;;
57155;SDS011;43023;59.928;10.682;2022-12-07T09:45:05;1.83;;;1.08;;
57155;SDS011;43023;59.928;10.682;2022-12-07T09:47:32;3.47;;;1.55;;
57155;SDS011;43023;59.928;10.682;2022-12-07T09:50:06;2.95;;;1.73;;
57155;SDS011;43023;59.928;10.682;2022-12-07T09:52:33;3.03;;;1.77;;
57155;SDS011;43023;59.928;10.682;2022-12-07T09:54:59;1.38;;;1.25;;
57155;SDS011;43023;59.928;10.682;2022-12-07T09:57:29;2.20;;;1.45;;
57155;SDS011;43023;59.928;10.682;2022-12-07T09:59:56;1.95;;;1.60;;
57155;SDS011;43023;59.928;10.682;2022-12-07T10:02:34;1.70;;;1.60;;
57155;SDS011;43023;59.928;10.682;2022-12-07T10:05:00;2.20;;;1.60;;
57155;SDS011;43023;59.928;10.682;2022-12-07T10:07:26;2.17;;;1.45;;
57155;SDS011;43023;59.928;10.682;2022-12-07T10:09:52;4.03;;;2.13;;
57155;SDS011;43023;59.928;10.682;2022-12-07T10:12:18;5.07;;;2.25;;
57155;SDS011;43023;59.928;10.682;2022-12-07T10:17:41;2.70;;;1.55;;
57155;SDS011;43023;59.928;10.682;2022-12-07T10:22:58;3.75;;;1.58;;
57155;SDS011;43023;59.928;10.682;2022-12-07T10:25:26;2.45;;;1.30;;
57155;SDS011;43023;59.928;10.682;2022-12-07T10:28:13;2.13;;;1.90;;
57155;SDS011;43023;59.928;10.682;2022-12-07T10:30:50;2.67;;;1.63;;
57155;SDS011;43023;59.928;10.682;2022-12-07T10:36:10;3.22;;;1.40;;
57155;SDS011;43023;59.928;10.682;2022-12-07T10:38:44;1.90;;;1.58;;
57155;SDS011;43023;59.928;10.682;2022-12-07T10:41:10;1.70;;;1.30;;
57155;SDS011;43023;59.928;10.682;2022-12-07T10:43:36;1.63;;;1.25;;
57155;SDS011;43023;59.928;10.682;2022-12-07T10:51:18;1.20;;;1.10;;
57155;SDS011;43023;59.928;10.682;2022-12-07T11:07:21;1.85;;;1.25;;
57155;SDS011;43023;59.928;10.682;2022-12-07T11:10:22;2.63;;;1.40;;
57155;SDS011;43023;59.928;10.682;2022-12-07T11:15:33;1.85;;;1.33;;
57155;SDS011;43023;59.928;10.682;2022-12-07T11:18:13;1.33;;;1.10;;
57155;SDS011;43023;59.928;10.682;2022-12-07T11:20:43;3.65;;;1.13;;
57155;SDS011;43023;59.928;10.682;2022-12-07T11:23:13;1.65;;;1.00;;
57155;SDS011;43023;59.928;10.682;2022-12-07T11:33:18;2.85;;;1.00;;
57155;SDS011;43023;59.928;10.682;2022-12-07T11:38:16;3.08;;;0.90;;
57155;SDS011;43023;59.928;10.682;2022-12-07T11:40:44;1.70;;;1.13;;
57155;SDS011;43023;59.928;10.682;2022-12-07T11:43:13;2.25;;;1.02;;
57155;SDS011;43023;59.928;10.682;2022-12-07T11:45:42;2.70;;;1.00;;
57155;SDS011;43023;59.928;10.682;2022-12-07T11:50:45;2.35;;;1.27;;
57155;SDS011;43023;59.928;10.682;2022-12-07T12:00:46;1.75;;;0.90;;
57155;SDS011;43023;59.928;10.682;2022-12-07T12:03:14;3.78;;;0.90;;
57155;SDS011;43023;59.928;10.682;2022-12-07T12:05:41;1.08;;;0.98;;
57155;SDS011;43023;59.928;10.682;2022-12-07T12:10:47;2.00;;;0.75;;
57155;SDS011;43023;59.928;10.682;2022-12-07T12:13:21;1.40;;;0.90;;
57155;SDS011;43023;59.928;10.682;2022-12-07T12:20:51;1.00;;;0.70;;
57155;SDS011;43023;59.928;10.682;2022-12-07T12:23:25;0.85;;;0.82;;
57155;SDS011;43023;59.928;10.682;2022-12-07T12:25:54;3.40;;;0.77;;
57155;SDS011;43023;59.928;10.682;2022-12-07T12:28:23;1.08;;;0.70;;
57155;SDS011;43023;59.928;10.682;2022-12-07T12:31:09;0.60;;;0.60;;
57155;SDS011;43023;59.928;10.682;2022-12-07T12:33:37;1.30;;;0.77;;
57155;SDS011;43023;59.928;10.682;2022-12-07T12:36:46;1.67;;;0.65;;
57155;SDS011;43023;59.928;10.682;2022-12-07T12:47:00;1.27;;;0.60;;
57155;SDS011;43023;59.928;10.682;2022-12-07T12:52:46;2.40;;;0.70;;
57155;SDS011;43023;59.928;10.682;2022-12-07T12:57:32;0.90;;;0.82;;
57155;SDS011;43023;59.928;10.682;2022-12-07T12:59:58;0.88;;;0.60;;
57155;SDS011;43023;59.928;10.682;2022-12-07T13:02:38;0.52;;;0.50;;
57155;SDS011;43023;59.928;10.682;2022-12-07T13:18:23;2.85;;;0.43;;
57155;SDS011;43023;59.928;10.682;2022-12-07T13:23:32;1.88;;;0.60;;
57155;SDS011;43023;59.928;10.682;2022-12-07T13:28:32;1.08;;;0.68;;
57155;SDS011;43023;59.928;10.682;2022-12-07T13:31:13;0.63;;;0.50;;
57155;SDS011;43023;59.928;10.682;2022-12-07T13:33:42;1.02;;;0.60;;
57155;SDS011;43023;59.928;10.682;2022-12-07T13:36:43;0.52;;;0.50;;
57155;SDS011;43023;59.928;10.682;2022-12-07T13:41:41;0.85;;;0.73;;
57155;SDS011;43023;59.928;10.682;2022-12-07T13:44:12;0.50;;;0.50;;
57155;SDS011;43023;59.928;10.682;2022-12-07T13:49:30;0.90;;;0.52;;
57155;SDS011;43023;59.928;10.682;2022-12-07T13:52:08;1.05;;;0.70;;
57155;SDS011;43023;59.928;10.682;2022-12-07T13:54:43;1.38;;;0.60;;
57155;SDS011;43023;59.928;10.682;2022-12-07T13:57:09;1.55;;;0.60;;
57155;SDS011;43023;59.928;10.682;2022-12-07T13:59:35;0.90;;;0.60;;
57155;SDS011;43023;59.928;10.682;2022-12-07T14:02:16;1.13;;;0.70;;
57155;SDS011;43023;59.928;10.682;2022-12-07T14:04:43;1.67;;;0.80;;
57155;SDS011;43023;59.928;10.682;2022-12-07T14:07:19;0.82;;;0.60;;
57155;SDS011;43023;59.928;10.682;2022-12-07T14:09:56;2.05;;;0.60;;
57155;SDS011;43023;59.928;10.682;2022-12-07T14:12:23;0.70;;;0.70;;
57155;SDS011;43023;59.928;10.682;2022-12-07T14:14:50;1.25;;;0.52;;
57155;SDS011;43023;59.928;10.682;2022-12-07T14:17:19;1.88;;;0.68;;
57155;SDS011;43023;59.928;10.682;2022-12-07T14:19:54;0.88;;;0.70;;
57155;SDS011;43023;59.928;10.682;2022-12-07T14:24:47;2.03;;;0.52;;
57155;SDS011;43023;59.928;10.682;2022-12-07T14:27:17;1.75;;;0.60;;
57155;SDS011;43023;59.928;10.682;2022-12-07T14:29:44;2.00;;;0.70;;
57155;SDS011;43023;59.928;10.682;2022-12-07T14:34:52;2.10;;;0.65;;
57155;SDS011;43023;59.928;10.682;2022-12-07T14:37:18;0.65;;;0.50;;
57155;SDS011;43023;59.928;10.682;2022-12-07T14:39:44;1.25;;;0.40;;
57155;SDS011;43023;59.928;10.682;2022-12-07T14:42:10;0.57;;;0.57;;
57155;SDS011;43023;59.928;10.682;2022-12-07T14:44:36;1.17;;;0.75;;
57155;SDS011;43023;59.928;10.682;2022-12-07T14:47:02;1.17;;;0.40;;
57155;SDS011;43023;59.928;10.682;2022-12-07T14:49:28;0.95;;;0.43;;
57155;SDS011;43023;59.928;10.682;2022-12-07T14:51:54;0.88;;;0.60;;
57155;SDS011;43023;59.928;10.682;2022-12-07T14:54:21;1.27;;;0.43;;
57155;SDS011;43023;59.928;10.682;2022-12-07T14:56:51;1.25;;;0.60;;
57155;SDS011;43023;59.928;10.682;2022-12-07T14:59:18;1.05;;;0.55;;
57155;SDS011;43023;59.928;10.682;2022-12-07T15:01:44;0.93;;;0.63;;
57155;SDS011;43023;59.928;10.682;2022-12-07T15:04:11;0.98;;;0.80;;
57155;SDS011;43023;59.928;10.682;2022-12-07T15:06:37;1.88;;;0.70;;
57155;SDS011;43023;59.928;10.682;2022-12-07T15:09:03;0.68;;;0.63;;
57155;SDS011;43023;59.928;10.682;2022-12-07T15:11:29;0.77;;;0.60;;
57155;SDS011;43023;59.928;10.682;2022-12-07T15:13:55;0.90;;;0.60;;
57155;SDS011;43023;59.928;10.682;2022-12-07T15:16:34;2.08;;;0.60;;
57155;SDS011;43023;59.928;10.682;2022-12-07T15:19:00;2.47;;;0.55;;
57155;SDS011;43023;59.928;10.682;2022-12-07T15:21:26;1.60;;;0.88;;
57155;SDS011;43023;59.928;10.682;2022-12-07T15:23:53;0.70;;;0.70;;
57155;SDS011;43023;59.928;10.682;2022-12-07T15:26:19;0.50;;;0.50;;
57155;SDS011;43023;59.928;10.682;2022-12-07T15:28:45;1.65;;;0.77;;
57155;SDS011;43023;59.928;10.682;2022-12-07T15:31:11;2.50;;;0.95;;
57155;SDS011;43023;59.928;10.682;2022-12-07T15:33:37;0.30;;;0.30;;
57155;SDS011;43023;59.928;10.682;2022-12-07T15:36:04;1.35;;;0.70;;
57155;SDS011;43023;59.928;10.682;2022-12-07T15:38:30;1.65;;;0.88;;
57155;SDS011;43023;59.928;10.682;2022-12-07T15:40:56;0.95;;;0.80;;
57155;SDS011;43023;59.928;10.682;2022-12-07T15:43:22;0.52;;;0.52;;
57155;SDS011;43023;59.928;10.682;2022-12-07T15:46:07;0.88;;;0.85;;
57155;SDS011;43023;59.928;10.682;2022-12-07T15:48:33;1.45;;;0.82;;
57155;SDS011;43023;59.928;10.682;2022-12-07T15:51:03;0.90;;;0.70;;
57155;SDS011;43023;59.928;10.682;2022-12-07T15:53:29;1.58;;;1.00;;
57155;SDS011;43023;59.928;10.682;2022-12-07T15:55:55;2.05;;;1.20;;
57155;SDS011;43023;59.928;10.682;2022-12-07T15:58:21;1.25;;;0.90;;
57155;SDS011;43023;59.928;10.682;2022-12-07T16:00:47;1.13;;;1.02;;
57155;SDS011;43023;59.928;10.682;2022-12-07T16:03:13;1.75;;;1.27;;
57155;SDS011;43023;59.928;10.682;2022-12-07T16:05:39;1.70;;;1.05;;
57155;SDS011;43023;59.928;10.682;2022-12-07T16:08:05;2.97;;;1.02;;
57155;SDS011;43023;59.928;10.682;2022-12-07T16:10:32;1.38;;;1.10;;
57155;SDS011;43023;59.928;10.682;2022-12-07T16:12:58;1.90;;;1.02;;
57155;SDS011;43023;59.928;10.682;2022-12-07T16:15:24;2.65;;;1.40;;
57155;SDS011;43023;59.928;10.682;2022-12-07T16:17:51;4.00;;;1.67;;
57155;SDS011;43023;59.928;10.682;2022-12-07T16:20:18;3.22;;;1.58;;
57155;SDS011;43023;59.928;10.682;2022-12-07T16:22:44;4.22;;;1.45;;
57155;SDS011;43023;59.928;10.682;2022-12-07T16:25:10;3.88;;;1.77;;
57155;SDS011;43023;59.928;10.682;2022-12-07T16:27:36;2.70;;;1.85;;
57155;SDS011;43023;59.928;10.682;2022-12-07T16:30:02;4.05;;;1.95;;
57155;SDS011;43023;59.928;10.682;2022-12-07T16:32:29;4.22;;;2.10;;
57155;SDS011;43023;59.928;10.682;2022-12-07T16:34:55;3.60;;;1.58;;
57155;SDS011;43023;59.928;10.682;2022-12-07T16:37:21;6.22;;;2.53;;
57155;SDS011;43023;59.928;10.682;2022-12-07T16:39:47;3.60;;;2.30;;
57155;SDS011;43023;59.928;10.682;2022-12-07T16:42:13;3.03;;;2.17;;
57155;SDS011;43023;59.928;10.682;2022-12-07T16:44:39;5.97;;;3.00;;
57155;SDS011;43023;59.928;10.682;2022-12-07T16:47:06;7.28;;;2.78;;
57155;SDS011;43023;59.928;10.682;2022-12-07T16:49:32;5.07;;;2.60;;
57155;SDS011;43023;59.928;10.682;2022-12-07T16:51:58;5.55;;;2.63;;
57155;SDS011;43023;59.928;10.682;2022-12-07T16:54:24;6.50;;;2.85;;